Pagrindinis puslapis
METAR-TAF:

METAR-TAF

Oro uostai :

Mountain Village, Aliaska, Jungtinės Amerikos Valstijos

platuma: 62-05-43N, ilguma: 163-40-55W, Aukštis: 103 m

Dabartinis oras

Ataskaita buvo paskelbta 1 valandą ir 1 minutes, ne 10:02 UTC
Vėjas 15 kt iš Šiaurės
Temperatūra -14°C
Drėgmė 72%
Slėgis 1010 hPa
Matomumas: 16.1 km
Giedras dangus

METAR: PAMO 261002Z AUTO 01015KT 10SM CLR M14/M18 A2982 RMK AO2 SLP109 T11441183 FZRANO

Laikas: 02:03 (11:03 UTC)


TAF: trūkstamas

Orai ataskaitas ir orų prognozės (METAR, TAF).

turimą stotys yra geltonos ir raudonos taškus žemėlapyje.

Perkelti pele per norėdami pamatyti stoties vardą.

Tada spustelėkite, norėdami matyti oro stebėjimo ir prognozės.

Norėdami pakeisti žemėlapį: spustelėkite ant žalios mygtukų su juodo kryžiaus žemyn,; žalią mygtuką su brūkšneliu, jei norite nutolinti; arba žalių rodyklių gretimoms žemėlapius.


METAR-TAF: